createdAt,value
2022-12-02T00:00:26.080Z,25.25
2022-12-02T00:02:58.251Z,24.92
2022-12-02T00:05:30.994Z,24.60
2022-12-02T00:08:02.932Z,25.68
2022-12-02T00:10:34.108Z,25.97
2022-12-02T00:13:28.862Z,24.90
2022-12-02T00:16:03.743Z,23.38
2022-12-02T00:18:31.642Z,23.65
2022-12-02T00:20:59.246Z,23.52
2022-12-02T00:23:26.652Z,24.25
2022-12-02T00:25:54.832Z,24.12
2022-12-02T00:28:22.491Z,22.70
2022-12-02T00:30:49.935Z,23.12
2022-12-02T00:33:18.768Z,22.65
2022-12-02T00:35:46.978Z,22.93
2022-12-02T00:38:15.128Z,23.50
2022-12-02T00:40:42.868Z,25.82
2022-12-02T00:43:30.409Z,29.92
2022-12-02T00:46:16.861Z,32.48
2022-12-02T00:48:44.277Z,37.80
2022-12-02T00:51:11.928Z,35.92
2022-12-02T00:53:39.689Z,35.45
2022-12-02T00:56:07.988Z,34.43
2022-12-02T00:58:35.988Z,32.58
2022-12-02T01:01:03.983Z,32.53
2022-12-02T01:03:31.945Z,33.15
2022-12-02T01:06:02.128Z,32.00
2022-12-02T01:08:30.017Z,34.03
2022-12-02T01:10:58.278Z,32.98
2022-12-02T01:13:27.789Z,33.48
2022-12-02T01:15:55.585Z,32.93
2022-12-02T01:18:23.651Z,34.27
2022-12-02T01:20:51.343Z,33.75
2022-12-02T01:23:19.152Z,33.10
2022-12-02T01:25:48.066Z,32.53
2022-12-02T01:28:17.529Z,33.83
2022-12-02T01:30:46.178Z,32.10
2022-12-02T01:33:13.734Z,32.48
2022-12-02T01:35:41.641Z,32.55
2022-12-02T01:38:09.156Z,32.73
2022-12-02T01:40:36.851Z,32.83
2022-12-02T01:43:04.422Z,30.15
2022-12-02T01:45:32.365Z,28.92
2022-12-02T01:48:01.602Z,28.15
2022-12-02T01:50:34.728Z,28.47
2022-12-02T01:53:04.367Z,28.15
2022-12-02T01:55:35.383Z,26.17
2022-12-02T01:58:05.948Z,29.37
2022-12-02T02:00:37.431Z,28.15
2022-12-02T02:03:06.326Z,27.82
2022-12-02T02:05:40.650Z,28.45
2022-12-02T02:08:12.384Z,29.72
2022-12-02T02:10:44.463Z,29.18
2022-12-02T02:13:17.437Z,28.17
2022-12-02T02:15:47.461Z,31.25
2022-12-02T02:18:18.003Z,30.82
2022-12-02T02:20:46.426Z,30.45
2022-12-02T02:23:21.489Z,31.25
2022-12-02T02:25:54.066Z,29.95
2022-12-02T02:28:24.888Z,31.02
2022-12-02T02:30:56.398Z,31.15
2022-12-02T02:33:29.440Z,32.10
2022-12-02T02:35:57.705Z,31.42
2022-12-02T02:38:28.376Z,33.70
2022-12-02T02:40:57.692Z,35.00
2022-12-02T02:43:28.503Z,33.98
2022-12-02T02:45:58.970Z,35.65
2022-12-02T02:48:29.796Z,37.85
2022-12-02T02:50:57.949Z,38.48
2022-12-02T02:53:26.877Z,35.80
2022-12-02T02:55:55.639Z,35.85
2022-12-02T02:58:25.714Z,40.33
2022-12-02T03:01:05.778Z,40.48
2022-12-02T03:03:41.412Z,41.63
2022-12-02T03:06:11.213Z,38.25
2022-12-02T03:08:43.552Z,33.90
2022-12-02T03:11:12.119Z,35.20
2022-12-02T03:13:41.693Z,33.55
2022-12-02T03:16:13.503Z,32.80
2022-12-02T03:18:44.545Z,31.25
2022-12-02T03:21:16.847Z,30.50
2022-12-02T03:23:47.392Z,29.57
2022-12-02T03:26:18.050Z,28.02
2022-12-02T03:28:57.867Z,29.80
2022-12-02T03:31:33.412Z,30.37
2022-12-02T03:34:02.154Z,28.23
2022-12-02T03:36:31.933Z,28.90
2022-12-02T03:39:02.094Z,29.20
2022-12-02T03:41:31.206Z,29.85
2022-12-02T03:44:00.592Z,28.25
2022-12-02T03:46:34.271Z,28.60
2022-12-02T03:49:07.660Z,29.05
2022-12-02T03:51:38.149Z,31.55
2022-12-02T03:54:06.544Z,30.17
2022-12-02T03:56:40.478Z,40.35
2022-12-02T03:59:08.761Z,31.30
2022-12-02T04:01:36.265Z,33.13
2022-12-02T04:04:04.087Z,34.25
2022-12-02T04:06:31.805Z,38.40
2022-12-02T04:08:59.708Z,36.77
2022-12-02T04:11:27.321Z,35.20
2022-12-02T04:13:55.241Z,31.23
2022-12-02T04:16:22.874Z,30.80
2022-12-02T04:18:51.019Z,31.25
2022-12-02T04:21:18.652Z,34.35
2022-12-02T04:23:45.975Z,42.25
2022-12-02T04:26:13.445Z,39.73
2022-12-02T04:28:41.113Z,37.60
2022-12-02T04:31:08.930Z,37.42
2022-12-02T04:33:36.507Z,37.03
2022-12-02T04:36:05.424Z,36.08
2022-12-02T04:38:33.230Z,31.82
2022-12-02T04:41:00.804Z,33.35
2022-12-02T04:43:28.546Z,31.52
2022-12-02T04:45:56.459Z,30.30
2022-12-02T04:48:24.449Z,31.42
2022-12-02T04:50:51.962Z,31.05
2022-12-02T04:53:19.466Z,31.68
2022-12-02T04:55:47.064Z,31.85
2022-12-02T04:58:15.178Z,33.15
2022-12-02T05:00:42.816Z,34.75
2022-12-02T05:03:10.531Z,35.45
2022-12-02T05:05:38.146Z,35.15
2022-12-02T05:08:05.704Z,35.13
2022-12-02T05:10:33.395Z,36.55
2022-12-02T05:13:00.998Z,34.65
2022-12-02T05:15:28.851Z,34.65
2022-12-02T05:17:56.361Z,34.88
2022-12-02T05:20:24.038Z,33.08
2022-12-02T05:22:51.496Z,33.40
2022-12-02T05:25:19.153Z,35.10
2022-12-02T05:27:46.861Z,33.78
2022-12-02T05:30:14.991Z,34.95
2022-12-02T05:32:42.550Z,33.85
2022-12-02T05:35:10.263Z,36.83
2022-12-02T05:37:38.096Z,34.58
2022-12-02T05:40:07.687Z,39.58
2022-12-02T05:42:35.563Z,49.08
2022-12-02T05:45:19.817Z,48.00
2022-12-02T05:47:52.820Z,41.48
2022-12-02T05:50:21.432Z,38.23
2022-12-02T05:52:51.141Z,36.30
2022-12-02T05:55:21.054Z,35.15
2022-12-02T05:57:49.528Z,32.30
2022-12-02T06:00:21.346Z,29.67
2022-12-02T06:03:01.594Z,28.32
2022-12-02T06:05:42.724Z,28.57
2022-12-02T06:08:26.938Z,30.25
2022-12-02T06:10:59.891Z,30.15
2022-12-02T06:13:32.110Z,31.57
2022-12-02T06:16:00.648Z,31.60
2022-12-02T06:18:32.814Z,34.45
2022-12-02T06:21:03.725Z,38.80
2022-12-02T06:23:33.102Z,40.92
2022-12-02T06:26:00.859Z,44.40
2022-12-02T06:28:37.975Z,45.30
2022-12-02T06:31:22.763Z,51.48
2022-12-02T06:33:53.099Z,55.33
2022-12-02T06:36:29.143Z,63.65
2022-12-02T06:39:04.670Z,62.98
2022-12-02T06:41:36.670Z,71.82
2022-12-02T06:44:43.792Z,51.53
2022-12-02T06:47:37.551Z,46.30
2022-12-02T06:50:19.618Z,44.27
2022-12-02T06:52:47.499Z,39.05
2022-12-02T06:55:32.095Z,37.93
2022-12-02T06:58:29.584Z,36.58
2022-12-02T07:01:17.405Z,34.73
2022-12-02T07:03:50.741Z,35.15
2022-12-02T07:06:27.366Z,35.17
2022-12-02T07:09:05.655Z,34.75
2022-12-02T07:11:49.418Z,37.13
2022-12-02T07:14:49.069Z,39.98
2022-12-02T07:17:28.533Z,40.10
2022-12-02T07:20:04.463Z,45.60
2022-12-02T07:22:43.476Z,59.00
2022-12-02T07:25:32.000Z,53.83
2022-12-02T07:28:01.973Z,49.90
2022-12-02T07:30:36.904Z,51.08
2022-12-02T07:33:04.515Z,54.38
2022-12-02T07:35:32.365Z,93.15
2022-12-02T07:37:59.650Z,51.35
2022-12-02T07:40:28.074Z,57.30
2022-12-02T07:42:55.642Z,58.33
2022-12-02T07:45:23.168Z,47.60
2022-12-02T07:47:50.944Z,50.40
2022-12-02T07:50:18.912Z,48.38
2022-12-02T07:52:46.421Z,48.28
2022-12-02T07:55:14.097Z,49.40
2022-12-02T07:57:41.691Z,48.98
2022-12-02T08:00:11.129Z,49.85
2022-12-02T08:02:41.807Z,40.78
2022-12-02T08:05:11.625Z,43.05
2022-12-02T08:07:39.630Z,42.35
2022-12-02T08:10:08.789Z,46.18
2022-12-02T08:12:36.324Z,54.63
2022-12-02T08:15:06.340Z,49.67
2022-12-02T08:17:34.676Z,44.23
2022-12-02T08:20:05.770Z,44.73
2022-12-02T08:22:33.333Z,42.30
2022-12-02T08:25:01.096Z,42.80
2022-12-02T08:27:28.648Z,38.75
2022-12-02T08:29:56.020Z,39.13
2022-12-02T08:32:23.591Z,39.53
2022-12-02T08:34:51.344Z,37.00
2022-12-02T08:37:19.440Z,35.65
2022-12-02T08:39:47.006Z,30.77
2022-12-02T08:42:14.770Z,28.57
2022-12-02T08:44:42.372Z,28.15
2022-12-02T08:47:09.944Z,29.05
2022-12-02T08:49:37.676Z,28.85
2022-12-02T08:52:05.247Z,28.77
2022-12-02T08:54:32.991Z,26.85
2022-12-02T08:57:00.582Z,26.48
2022-12-02T08:59:28.187Z,26.90
2022-12-02T09:01:55.772Z,28.47
2022-12-02T09:04:23.449Z,29.20
2022-12-02T09:06:53.126Z,27.45
2022-12-02T09:09:20.944Z,29.18
2022-12-02T09:11:48.785Z,29.45
2022-12-02T09:14:16.787Z,25.30
2022-12-02T09:16:44.440Z,21.85
2022-12-02T09:19:13.640Z,18.07
2022-12-02T09:21:41.585Z,17.70
2022-12-02T09:24:09.022Z,14.80
2022-12-02T09:26:36.517Z,13.43
2022-12-02T09:29:04.007Z,17.85
2022-12-02T09:31:32.040Z,20.97
2022-12-02T09:33:59.610Z,20.77
2022-12-02T09:36:27.285Z,21.80
2022-12-02T09:38:54.951Z,19.00
2022-12-02T09:41:22.687Z,22.75
2022-12-02T09:43:50.591Z,21.55
2022-12-02T09:46:24.327Z,25.12
2022-12-02T09:48:48.716Z,27.65
2022-12-02T09:51:16.426Z,28.05
2022-12-02T09:53:46.161Z,27.42
2022-12-02T09:56:18.520Z,27.82
2022-12-02T09:58:53.538Z,24.82
2022-12-02T10:01:26.047Z,26.05
2022-12-02T10:03:54.236Z,25.55
2022-12-02T10:06:28.063Z,23.12
2022-12-02T10:08:57.603Z,25.55
2022-12-02T10:11:34.717Z,20.45
2022-12-02T10:14:04.575Z,21.80
2022-12-02T10:16:34.179Z,26.37
2022-12-02T10:19:04.331Z,26.52
2022-12-02T10:21:32.375Z,24.30
2022-12-02T10:24:04.791Z,23.75
2022-12-02T10:26:49.341Z,21.27
2022-12-02T10:29:29.902Z,18.17
2022-12-02T10:32:02.795Z,19.23
2022-12-02T10:34:33.374Z,17.30
2022-12-02T10:37:24.097Z,17.85
2022-12-02T10:40:15.214Z,17.48
2022-12-02T10:42:44.259Z,18.40
2022-12-02T10:45:24.625Z,23.18
2022-12-02T10:47:57.797Z,22.75
2022-12-02T10:50:25.288Z,21.37
2022-12-02T10:52:58.152Z,19.60
2022-12-02T10:55:28.637Z,20.97
2022-12-02T10:57:56.391Z,20.95
2022-12-02T11:00:26.544Z,19.90
2022-12-02T11:02:59.452Z,21.25
2022-12-02T11:05:35.203Z,18.90
2022-12-02T11:08:07.665Z,21.48
2022-12-02T11:10:40.295Z,15.78
2022-12-02T11:13:19.845Z,12.73
2022-12-02T11:15:51.156Z,13.00
2022-12-02T11:18:42.295Z,12.10
2022-12-02T11:21:30.661Z,11.65
2022-12-02T11:24:26.203Z,11.53
2022-12-02T11:27:05.202Z,11.35
2022-12-02T11:29:41.127Z,10.10
2022-12-02T11:32:38.099Z,9.95
2022-12-02T11:35:18.670Z,10.35
2022-12-02T11:37:47.702Z,8.93
2022-12-02T11:40:22.142Z,9.85
2022-12-02T11:42:52.595Z,7.12
2022-12-02T11:45:25.526Z,7.72
2022-12-02T11:47:59.346Z,8.93
2022-12-02T11:50:39.740Z,9.18
2022-12-02T11:53:20.531Z,9.70
2022-12-02T11:55:51.704Z,9.55
2022-12-02T11:58:29.311Z,10.15
2022-12-02T12:01:15.466Z,10.72
2022-12-02T12:03:47.626Z,10.98
2022-12-02T12:06:25.926Z,10.70
2022-12-02T12:08:56.580Z,11.03
2022-12-02T12:11:30.031Z,11.78
2022-12-02T12:16:38.375Z,11.43
2022-12-02T12:19:20.778Z,11.50
2022-12-02T12:21:52.240Z,14.25
2022-12-02T12:24:25.359Z,13.00
2022-12-02T12:27:04.351Z,12.55
2022-12-02T12:29:35.311Z,12.63
2022-12-02T12:32:04.748Z,15.20
2022-12-02T12:34:33.396Z,13.50
2022-12-02T12:37:01.262Z,13.58
2022-12-02T12:39:28.876Z,16.10
2022-12-02T12:42:01.144Z,16.77
2022-12-02T12:44:30.009Z,19.45
2022-12-02T12:46:55.746Z,15.60
2022-12-02T12:49:24.491Z,16.25
2022-12-02T12:51:51.957Z,15.13
2022-12-02T12:54:19.809Z,16.00
2022-12-02T12:56:47.296Z,13.53
2022-12-02T12:59:15.094Z,13.20
2022-12-02T13:01:44.319Z,13.40
2022-12-02T13:04:12.983Z,13.88
2022-12-02T13:06:42.976Z,14.83
2022-12-02T13:09:12.800Z,14.38
2022-12-02T13:11:40.971Z,15.30
2022-12-02T13:14:08.807Z,22.48
2022-12-02T13:16:36.950Z,21.33
2022-12-02T13:19:06.277Z,16.77
2022-12-02T13:21:34.401Z,12.23
2022-12-02T13:24:03.614Z,13.30
2022-12-02T13:26:31.715Z,13.75
2022-12-02T13:28:59.275Z,14.70
2022-12-02T13:31:27.023Z,13.15
2022-12-02T13:33:54.513Z,13.98
2022-12-02T13:36:22.203Z,25.77
2022-12-02T13:38:49.879Z,21.40
2022-12-02T13:41:17.487Z,19.70
2022-12-02T13:43:44.860Z,20.48
2022-12-02T13:46:12.506Z,18.85
2022-12-02T13:48:40.221Z,18.32
2022-12-02T13:51:07.788Z,17.80
2022-12-02T13:53:35.434Z,17.60
2022-12-02T13:56:03.247Z,17.15
2022-12-02T13:58:30.596Z,16.95
2022-12-02T14:00:58.197Z,13.85
2022-12-02T14:03:25.829Z,13.03
2022-12-02T14:05:53.446Z,13.22
2022-12-02T14:08:21.257Z,12.90
2022-12-02T14:10:49.098Z,11.45
2022-12-02T14:13:20.995Z,12.50
2022-12-02T14:15:46.784Z,13.08
2022-12-02T14:18:14.299Z,13.95
2022-12-02T14:20:41.720Z,15.05
2022-12-02T14:23:11.128Z,14.73
2022-12-02T14:25:38.924Z,15.45
2022-12-02T14:28:06.452Z,15.93
2022-12-02T14:30:34.582Z,16.20
2022-12-02T14:33:01.949Z,15.65
2022-12-02T14:35:29.274Z,14.30
2022-12-02T14:37:56.840Z,14.07
2022-12-02T14:40:24.728Z,13.58
2022-12-02T14:42:53.377Z,15.78
2022-12-02T14:45:21.111Z,17.27
2022-12-02T14:47:49.003Z,16.12
2022-12-02T14:50:16.783Z,16.57
2022-12-02T14:52:44.366Z,18.07
2022-12-02T14:55:11.905Z,17.75
2022-12-02T14:57:39.570Z,17.85
2022-12-02T15:00:10.876Z,18.32
2022-12-02T15:02:39.770Z,18.00
2022-12-02T15:05:14.527Z,17.92
2022-12-02T15:07:38.992Z,19.67
2022-12-02T15:10:10.799Z,21.62
2022-12-02T15:12:38.367Z,25.02
2022-12-02T15:15:36.293Z,22.32
2022-12-02T15:17:38.813Z,25.55
2022-12-02T15:20:09.922Z,27.62
2022-12-02T15:22:37.532Z,29.02
2022-12-02T15:25:06.597Z,35.25
2022-12-02T15:27:35.137Z,45.40
2022-12-02T15:30:03.616Z,34.78
2022-12-02T15:32:31.199Z,34.98
2022-12-02T15:34:58.756Z,33.10
2022-12-02T15:37:26.355Z,35.45
2022-12-02T15:39:54.103Z,35.63
2022-12-02T15:42:21.717Z,38.10
2022-12-02T15:44:49.458Z,50.45
2022-12-02T15:47:17.159Z,57.67
2022-12-02T15:49:44.564Z,58.13
2022-12-02T15:52:12.157Z,58.23
2022-12-02T15:54:39.832Z,32.05
2022-12-02T15:57:07.373Z,25.97
2022-12-02T15:59:34.927Z,26.87
2022-12-02T16:02:02.638Z,26.60
2022-12-02T16:04:31.932Z,26.23
2022-12-02T16:06:59.622Z,27.77
2022-12-02T16:09:27.619Z,28.77
2022-12-02T16:11:55.059Z,31.52
2022-12-02T16:14:22.730Z,27.60
2022-12-02T16:16:50.529Z,29.85
2022-12-02T16:19:19.109Z,26.07
2022-12-02T16:21:46.609Z,26.42
2022-12-02T16:24:14.043Z,31.73
2022-12-02T16:26:41.590Z,30.12
2022-12-02T16:29:09.349Z,28.07
2022-12-02T16:31:37.017Z,25.02
2022-12-02T16:34:05.298Z,25.60
2022-12-02T16:36:32.926Z,26.02
2022-12-02T16:39:00.564Z,26.17
2022-12-02T16:41:28.771Z,25.80
2022-12-02T16:43:56.444Z,28.07
2022-12-02T16:46:24.019Z,29.52
2022-12-02T16:48:51.668Z,31.25
2022-12-02T16:51:19.228Z,31.00
2022-12-02T16:53:46.827Z,28.20
2022-12-02T16:56:14.362Z,26.77
2022-12-02T16:58:42.697Z,29.23
2022-12-02T17:01:10.452Z,29.02
2022-12-02T17:03:38.146Z,31.73
2022-12-02T17:06:07.044Z,30.85
2022-12-02T17:08:34.611Z,29.70
2022-12-02T17:11:02.126Z,28.90
2022-12-02T17:13:31.398Z,28.98
2022-12-02T17:15:59.042Z,28.35
2022-12-02T17:18:26.795Z,28.30
2022-12-02T17:20:55.808Z,30.80
2022-12-02T17:23:23.646Z,34.63
2022-12-02T17:25:52.750Z,32.42
2022-12-02T17:28:21.799Z,38.58
2022-12-02T17:30:49.250Z,48.60
2022-12-02T17:33:16.827Z,52.93
2022-12-02T17:35:44.808Z,88.55
2022-12-02T17:38:12.353Z,79.40
2022-12-02T17:40:39.992Z,60.12
2022-12-02T17:43:07.620Z,52.75
2022-12-02T17:45:35.179Z,41.58
2022-12-02T17:48:03.223Z,45.38
2022-12-02T17:50:30.922Z,41.48
2022-12-02T17:52:58.692Z,41.25
2022-12-02T17:55:26.273Z,41.90
2022-12-02T17:57:53.766Z,42.98
2022-12-02T18:00:21.749Z,46.50
2022-12-02T18:02:49.399Z,49.15
2022-12-02T18:05:16.894Z,49.53
2022-12-02T18:07:44.973Z,57.30
2022-12-02T18:10:13.044Z,67.22
2022-12-02T18:12:40.618Z,73.42
2022-12-02T18:15:14.752Z,71.12
2022-12-02T18:17:42.537Z,71.97
2022-12-02T18:20:11.608Z,65.67
2022-12-02T18:22:42.073Z,62.15
2022-12-02T18:25:09.821Z,58.02
2022-12-02T18:27:37.709Z,53.25
2022-12-02T18:30:08.968Z,43.42
2022-12-02T18:32:36.083Z,40.83
2022-12-02T18:35:05.913Z,38.95
2022-12-02T18:37:33.384Z,38.13
2022-12-02T18:40:04.250Z,36.38
2022-12-02T18:42:33.242Z,34.35
2022-12-02T18:45:00.733Z,36.00
2022-12-02T18:47:28.618Z,36.38
2022-12-02T18:49:58.579Z,41.35
2022-12-02T18:52:26.020Z,43.70
2022-12-02T18:54:53.881Z,34.55
2022-12-02T18:57:21.695Z,40.95
2022-12-02T18:59:49.435Z,41.08
2022-12-02T19:02:17.243Z,40.45
2022-12-02T19:04:47.042Z,43.20
2022-12-02T19:07:18.380Z,55.58
2022-12-02T19:09:51.605Z,49.90
2022-12-02T19:12:15.883Z,46.92
2022-12-02T19:14:43.441Z,43.85
2022-12-02T19:17:11.285Z,43.10
2022-12-02T19:19:38.625Z,41.88
2022-12-02T19:22:06.429Z,42.60
2022-12-02T19:24:34.001Z,41.85
2022-12-02T19:27:01.680Z,49.40
2022-12-02T19:29:29.274Z,57.93
2022-12-02T19:31:57.202Z,65.50
2022-12-02T19:34:24.735Z,80.32
2022-12-02T19:36:52.361Z,80.75
2022-12-02T19:39:20.022Z,63.63
2022-12-02T19:41:47.556Z,59.95
2022-12-02T19:44:14.892Z,65.05
2022-12-02T19:46:42.508Z,63.52
2022-12-02T19:49:10.586Z,62.83
2022-12-02T19:51:38.418Z,64.47
2022-12-02T19:54:06.228Z,64.37
2022-12-02T19:56:33.916Z,64.65
2022-12-02T19:59:01.667Z,53.00
2022-12-02T20:01:33.024Z,49.20
2022-12-02T20:04:19.288Z,47.58
2022-12-02T20:06:29.889Z,50.43
2022-12-02T20:08:57.658Z,53.65
2022-12-02T20:11:25.293Z,58.78
2022-12-02T20:13:52.735Z,60.00
2022-12-02T20:16:20.034Z,60.58
2022-12-02T20:18:47.798Z,57.55
2022-12-02T20:21:15.408Z,64.17
2022-12-02T20:23:43.077Z,63.30
2022-12-02T20:26:11.145Z,61.60
2022-12-02T20:28:38.671Z,58.65
2022-12-02T20:31:06.380Z,56.23
2022-12-02T20:33:34.286Z,51.28
2022-12-02T20:36:01.896Z,46.73
2022-12-02T20:38:31.117Z,49.03
2022-12-02T20:40:58.687Z,46.37
2022-12-02T20:43:26.076Z,47.95
2022-12-02T20:45:53.565Z,48.42
2022-12-02T20:48:21.018Z,46.92
2022-12-02T20:50:48.539Z,46.02
2022-12-02T20:53:16.049Z,44.40
2022-12-02T20:55:43.492Z,45.75
2022-12-02T20:58:11.182Z,44.50
2022-12-02T21:00:38.633Z,48.42
2022-12-02T21:03:06.330Z,49.65
2022-12-02T21:05:35.775Z,54.38
2022-12-02T21:08:03.767Z,50.30
2022-12-02T21:10:32.068Z,51.23
2022-12-02T21:13:00.682Z,49.55
2022-12-02T21:15:30.467Z,52.25
2022-12-02T21:17:58.283Z,57.13
2022-12-02T21:20:26.207Z,65.75
2022-12-02T21:22:53.795Z,63.00
2022-12-02T21:25:21.578Z,56.88
2022-12-02T21:27:49.223Z,56.80
2022-12-02T21:30:17.035Z,56.65
2022-12-02T21:32:44.603Z,61.98
2022-12-02T21:35:12.175Z,60.83
2022-12-02T21:37:39.903Z,57.83
2022-12-02T21:40:11.068Z,57.93
2022-12-02T21:42:38.905Z,53.73
2022-12-02T21:45:08.558Z,54.58
2022-12-02T21:47:36.262Z,56.30
2022-12-02T21:50:05.545Z,46.65
2022-12-02T21:52:33.114Z,40.25
2022-12-02T21:55:00.966Z,43.38
2022-12-02T21:57:28.705Z,46.37
2022-12-02T21:59:56.469Z,45.60
2022-12-02T22:02:25.826Z,48.23
2022-12-02T22:04:54.416Z,45.98
2022-12-02T22:07:39.964Z,45.40
2022-12-02T22:10:15.490Z,49.13
2022-12-02T22:12:44.189Z,46.08
2022-12-02T22:15:13.226Z,40.63
2022-12-02T22:17:41.060Z,61.53
2022-12-02T22:20:10.341Z,53.02
2022-12-02T22:22:37.820Z,47.00
2022-12-02T22:25:07.910Z,47.27
2022-12-02T22:27:35.568Z,40.63
2022-12-02T22:30:06.317Z,37.70
2022-12-02T22:32:35.095Z,44.48
2022-12-02T22:35:04.502Z,40.40
2022-12-02T22:37:32.082Z,38.78
2022-12-02T22:39:59.715Z,36.68
2022-12-02T22:42:27.352Z,34.18
2022-12-02T22:44:55.219Z,36.03
2022-12-02T22:47:23.316Z,34.03
2022-12-02T22:49:50.813Z,39.23
2022-12-02T22:52:18.614Z,37.98
2022-12-02T22:54:46.302Z,33.53
2022-12-02T22:57:13.931Z,30.90
2022-12-02T22:59:41.585Z,34.38
2022-12-02T23:02:13.891Z,34.73
2022-12-02T23:04:38.952Z,39.88
2022-12-02T23:07:07.062Z,39.25
2022-12-02T23:09:35.157Z,46.90
2022-12-02T23:12:03.065Z,59.98
2022-12-02T23:14:30.874Z,52.80
2022-12-02T23:16:58.559Z,48.98
2022-12-02T23:19:25.860Z,42.98
2022-12-02T23:21:53.352Z,37.50
2022-12-02T23:24:20.963Z,45.25
2022-12-02T23:26:48.478Z,45.50
2022-12-02T23:29:17.154Z,46.45
2022-12-02T23:31:44.764Z,43.83
2022-12-02T23:34:13.359Z,37.93
2022-12-02T23:36:40.928Z,30.68
2022-12-02T23:39:08.409Z,31.27
2022-12-02T23:41:36.360Z,34.40
2022-12-02T23:44:04.700Z,33.23
2022-12-02T23:46:33.775Z,32.00
2022-12-02T23:49:01.356Z,29.82
2022-12-02T23:51:28.945Z,31.85
2022-12-02T23:53:56.533Z,32.25
2022-12-02T23:56:24.193Z,31.87
2022-12-02T23:58:52.022Z,32.33
